sensor_id;sensor_type;location;lat;lon;timestamp;pressure;altitude;pressure_sealevel;temperature;humidity
49813;BME280;35706;52.100;5.056;2023-02-28T00:00:03;103143.41;;;5.90;69.37
49813;BME280;35706;52.100;5.056;2023-02-28T00:01:11;103147.38;;;5.46;70.28
49813;BME280;35706;52.100;5.056;2023-02-28T00:02:12;103135.75;;;5.56;70.94
49813;BME280;35706;52.100;5.056;2023-02-28T00:03:12;103146.69;;;5.39;71.04
49813;BME280;35706;52.100;5.056;2023-02-28T00:04:12;103142.06;;;5.49;71.08
49813;BME280;35706;52.100;5.056;2023-02-28T00:05:15;103142.41;;;5.38;71.02
49813;BME280;35706;52.100;5.056;2023-02-28T00:06:16;103143.91;;;5.16;72.07
49813;BME280;35706;52.100;5.056;2023-02-28T00:07:17;103136.84;;;5.21;72.12
49813;BME280;35706;52.100;5.056;2023-02-28T00:08:17;103142.28;;;5.41;71.64
49813;BME280;35706;52.100;5.056;2023-02-28T00:09:17;103138.84;;;5.41;71.33
49813;BME280;35706;52.100;5.056;2023-02-28T00:10:20;103133.34;;;5.50;71.08
49813;BME280;35706;52.100;5.056;2023-02-28T00:11:21;103131.50;;;5.54;70.92
49813;BME280;35706;52.100;5.056;2023-02-28T00:12:21;103132.00;;;5.37;71.47
49813;BME280;35706;52.100;5.056;2023-02-28T00:13:22;103124.63;;;5.51;71.40
49813;BME280;35706;52.100;5.056;2023-02-28T00:14:22;103136.72;;;5.24;71.95
49813;BME280;35706;52.100;5.056;2023-02-28T00:15:23;103138.72;;;5.44;72.22
49813;BME280;35706;52.100;5.056;2023-02-28T00:16:23;103141.13;;;5.51;71.75
49813;BME280;35706;52.100;5.056;2023-02-28T00:17:24;103138.44;;;5.55;71.30
49813;BME280;35706;52.100;5.056;2023-02-28T00:18:24;103135.22;;;5.46;71.62
49813;BME280;35706;52.100;5.056;2023-02-28T00:19:24;103139.03;;;5.35;72.42
49813;BME280;35706;52.100;5.056;2023-02-28T00:20:25;103136.84;;;5.49;72.10
49813;BME280;35706;52.100;5.056;2023-02-28T00:21:25;103131.19;;;5.35;72.34
49813;BME280;35706;52.100;5.056;2023-02-28T00:22:26;103130.78;;;5.48;71.77
49813;BME280;35706;52.100;5.056;2023-02-28T00:23:27;103134.88;;;5.57;71.68
49813;BME280;35706;52.100;5.056;2023-02-28T00:24:27;103140.53;;;5.42;71.96
49813;BME280;35706;52.100;5.056;2023-02-28T00:25:28;103142.25;;;5.43;72.17
49813;BME280;35706;52.100;5.056;2023-02-28T00:26:28;103143.84;;;5.19;72.57
49813;BME280;35706;52.100;5.056;2023-02-28T00:27:28;103148.22;;;4.87;73.86
49813;BME280;35706;52.100;5.056;2023-02-28T00:28:29;103145.31;;;4.98;74.26
49813;BME280;35706;52.100;5.056;2023-02-28T00:29:29;103141.34;;;5.14;73.37
49813;BME280;35706;52.100;5.056;2023-02-28T00:30:29;103146.38;;;5.20;73.08
49813;BME280;35706;52.100;5.056;2023-02-28T00:31:30;103142.44;;;5.37;72.54
49813;BME280;35706;52.100;5.056;2023-02-28T00:32:30;103144.09;;;5.39;72.48
49813;BME280;35706;52.100;5.056;2023-02-28T00:33:30;103143.72;;;5.23;72.82
49813;BME280;35706;52.100;5.056;2023-02-28T00:34:31;103141.78;;;5.30;72.52
49813;BME280;35706;52.100;5.056;2023-02-28T00:35:37;103143.03;;;5.46;72.36
49813;BME280;35706;52.100;5.056;2023-02-28T00:36:37;103145.16;;;5.34;72.27
49813;BME280;35706;52.100;5.056;2023-02-28T00:37:38;103142.53;;;5.34;72.62
49813;BME280;35706;52.100;5.056;2023-02-28T00:38:39;103139.69;;;5.12;73.24
49813;BME280;35706;52.100;5.056;2023-02-28T00:39:39;103140.84;;;5.31;72.91
49813;BME280;35706;52.100;5.056;2023-02-28T00:40:41;103144.97;;;5.40;72.86
49813;BME280;35706;52.100;5.056;2023-02-28T00:41:41;103137.03;;;5.43;72.48
49813;BME280;35706;52.100;5.056;2023-02-28T00:42:41;103136.41;;;5.35;73.00
49813;BME280;35706;52.100;5.056;2023-02-28T00:43:42;103138.13;;;5.36;72.53
49813;BME280;35706;52.100;5.056;2023-02-28T00:44:42;103135.59;;;5.33;72.48
49813;BME280;35706;52.100;5.056;2023-02-28T00:45:43;103146.50;;;5.17;73.10
49813;BME280;35706;52.100;5.056;2023-02-28T00:46:43;103134.75;;;5.32;72.98
49813;BME280;35706;52.100;5.056;2023-02-28T00:47:43;103142.22;;;5.44;72.44
49813;BME280;35706;52.100;5.056;2023-02-28T00:48:44;103140.69;;;5.37;72.38
49813;BME280;35706;52.100;5.056;2023-02-28T00:49:44;103135.38;;;5.40;72.25
49813;BME280;35706;52.100;5.056;2023-02-28T00:50:48;103130.03;;;5.45;72.47
49813;BME280;35706;52.100;5.056;2023-02-28T00:51:49;103128.06;;;5.51;72.11
49813;BME280;35706;52.100;5.056;2023-02-28T00:52:50;103134.44;;;5.43;72.50
49813;BME280;35706;52.100;5.056;2023-02-28T00:53:50;103136.38;;;5.36;72.58
49813;BME280;35706;52.100;5.056;2023-02-28T00:54:50;103135.59;;;5.33;72.89
49813;BME280;35706;52.100;5.056;2023-02-28T00:55:51;103132.00;;;5.37;72.90
49813;BME280;35706;52.100;5.056;2023-02-28T00:56:51;103139.03;;;5.35;72.96
49813;BME280;35706;52.100;5.056;2023-02-28T00:57:51;103133.44;;;5.47;72.44
49813;BME280;35706;52.100;5.056;2023-02-28T00:58:52;103128.78;;;5.28;72.83
49813;BME280;35706;52.100;5.056;2023-02-28T00:59:52;103131.69;;;5.18;73.20
49813;BME280;35706;52.100;5.056;2023-02-28T01:00:54;103134.84;;;5.29;73.09
49813;BME280;35706;52.100;5.056;2023-02-28T01:01:54;103139.38;;;5.22;73.46
49813;BME280;35706;52.100;5.056;2023-02-28T01:02:55;103137.34;;;5.34;73.02
49813;BME280;35706;52.100;5.056;2023-02-28T01:03:55;103136.28;;;5.39;72.92
49813;BME280;35706;52.100;5.056;2023-02-28T01:04:55;103136.09;;;5.45;72.71
49813;BME280;35706;52.100;5.056;2023-02-28T01:05:56;103134.06;;;5.55;72.95
49813;BME280;35706;52.100;5.056;2023-02-28T01:06:57;103132.31;;;5.56;72.47
49813;BME280;35706;52.100;5.056;2023-02-28T01:07:57;103136.50;;;5.61;72.24
49813;BME280;35706;52.100;5.056;2023-02-28T01:08:59;103128.03;;;5.53;72.30
49813;BME280;35706;52.100;5.056;2023-02-28T01:09:59;103133.44;;;5.47;72.67
49813;BME280;35706;52.100;5.056;2023-02-28T01:11:07;103137.38;;;5.60;71.95
49813;BME280;35706;52.100;5.056;2023-02-28T01:12:08;103130.28;;;5.65;71.87
49813;BME280;35706;52.100;5.056;2023-02-28T01:13:09;103141.94;;;5.24;73.16
49813;BME280;35706;52.100;5.056;2023-02-28T01:14:13;103145.97;;;5.36;73.00
49813;BME280;35706;52.100;5.056;2023-02-28T01:15:13;103138.66;;;5.47;72.80
49813;BME280;35706;52.100;5.056;2023-02-28T01:16:14;103136.53;;;5.60;72.22
49813;BME280;35706;52.100;5.056;2023-02-28T01:17:14;103131.97;;;5.66;71.90
49813;BME280;35706;52.100;5.056;2023-02-28T01:18:14;103128.66;;;5.61;71.95
49813;BME280;35706;52.100;5.056;2023-02-28T01:19:15;103131.09;;;5.67;71.68
49813;BME280;35706;52.100;5.056;2023-02-28T01:20:15;103136.19;;;5.70;71.81
49813;BME280;35706;52.100;5.056;2023-02-28T01:21:17;103129.94;;;5.76;71.55
49813;BME280;35706;52.100;5.056;2023-02-28T01:22:18;103133.16;;;5.56;72.13
49813;BME280;35706;52.100;5.056;2023-02-28T01:23:19;103126.06;;;5.61;72.12
49813;BME280;35706;52.100;5.056;2023-02-28T01:24:21;103135.50;;;5.65;72.22
49813;BME280;35706;52.100;5.056;2023-02-28T01:25:21;103126.09;;;5.60;72.21
49813;BME280;35706;52.100;5.056;2023-02-28T01:26:23;103134.81;;;5.59;72.27
49813;BME280;35706;52.100;5.056;2023-02-28T01:27:23;103120.84;;;5.61;71.87
49813;BME280;35706;52.100;5.056;2023-02-28T01:28:23;103134.44;;;5.71;71.67
49813;BME280;35706;52.100;5.056;2023-02-28T01:29:24;103134.75;;;5.60;71.75
49813;BME280;35706;52.100;5.056;2023-02-28T01:30:24;103133.09;;;5.58;72.73
49813;BME280;35706;52.100;5.056;2023-02-28T01:31:25;103137.28;;;5.63;72.27
49813;BME280;35706;52.100;5.056;2023-02-28T01:32:25;103121.84;;;5.57;72.31
49813;BME280;35706;52.100;5.056;2023-02-28T01:33:26;103125.88;;;5.67;72.23
49813;BME280;35706;52.100;5.056;2023-02-28T01:34:26;103134.44;;;5.43;72.54
49813;BME280;35706;52.100;5.056;2023-02-28T01:35:26;103137.81;;;5.46;72.88
49813;BME280;35706;52.100;5.056;2023-02-28T01:36:26;103129.50;;;5.34;72.92
49813;BME280;35706;52.100;5.056;2023-02-28T01:37:27;103123.19;;;5.41;73.14
49813;BME280;35706;52.100;5.056;2023-02-28T01:38:27;103126.97;;;5.30;73.31
49813;BME280;35706;52.100;5.056;2023-02-28T01:39:28;103123.84;;;5.47;73.20
49813;BME280;35706;52.100;5.056;2023-02-28T01:40:28;103121.28;;;5.46;72.86
49813;BME280;35706;52.100;5.056;2023-02-28T01:41:31;103128.88;;;5.54;72.72
49813;BME280;35706;52.100;5.056;2023-02-28T01:42:32;103118.31;;;5.58;72.50
49813;BME280;35706;52.100;5.056;2023-02-28T01:45:14;103126.13;;;5.58;72.71
49813;BME280;35706;52.100;5.056;2023-02-28T01:46:16;103128.44;;;5.39;72.93
49813;BME280;35706;52.100;5.056;2023-02-28T01:47:17;103127.22;;;5.51;72.85
49813;BME280;35706;52.100;5.056;2023-02-28T01:48:19;103127.28;;;5.49;73.06
49813;BME280;35706;52.100;5.056;2023-02-28T01:49:21;103122.06;;;5.49;73.34
49813;BME280;35706;52.100;5.056;2023-02-28T01:50:26;103128.75;;;5.58;72.84
49813;BME280;35706;52.100;5.056;2023-02-28T01:51:41;103115.63;;;5.61;72.64
49813;BME280;35706;52.100;5.056;2023-02-28T01:52:47;103123.38;;;5.63;72.59
49813;BME280;35706;52.100;5.056;2023-02-28T01:53:52;103116.97;;;5.73;72.44
49813;BME280;35706;52.100;5.056;2023-02-28T01:54:55;103120.47;;;5.74;72.09
49813;BME280;35706;52.100;5.056;2023-02-28T01:55:56;103122.50;;;5.64;72.48
49813;BME280;35706;52.100;5.056;2023-02-28T01:57:06;103119.22;;;5.57;72.24
49813;BME280;35706;52.100;5.056;2023-02-28T01:58:08;103125.44;;;5.53;72.57
49813;BME280;35706;52.100;5.056;2023-02-28T01:59:10;103124.50;;;5.54;72.42
49813;BME280;35706;52.100;5.056;2023-02-28T02:00:17;103118.16;;;5.63;72.53
49813;BME280;35706;52.100;5.056;2023-02-28T02:01:20;103120.84;;;5.61;72.64
49813;BME280;35706;52.100;5.056;2023-02-28T02:02:24;103119.66;;;5.42;73.21
49813;BME280;35706;52.100;5.056;2023-02-28T02:03:25;103118.56;;;5.50;73.45
49813;BME280;35706;52.100;5.056;2023-02-28T02:04:28;103118.31;;;5.58;73.28
49813;BME280;35706;52.100;5.056;2023-02-28T02:05:33;103113.22;;;5.54;73.24
49813;BME280;35706;52.100;5.056;2023-02-28T02:06:38;103108.59;;;5.63;72.67
49813;BME280;35706;52.100;5.056;2023-02-28T02:07:41;103110.13;;;5.69;72.65
49813;BME280;35706;52.100;5.056;2023-02-28T02:08:42;103109.13;;;5.73;72.27
49813;BME280;35706;52.100;5.056;2023-02-28T02:09:42;103106.50;;;5.75;72.51
49813;BME280;35706;52.100;5.056;2023-02-28T02:10:46;103109.13;;;5.73;72.25
49813;BME280;35706;52.100;5.056;2023-02-28T02:11:48;103108.47;;;5.66;72.52
49813;BME280;35706;52.100;5.056;2023-02-28T02:14:12;103109.16;;;5.45;73.57
49813;BME280;35706;52.100;5.056;2023-02-28T02:15:32;103095.47;;;5.65;72.84
49813;BME280;35706;52.100;5.056;2023-02-28T02:17:44;103092.44;;;5.79;72.70
49813;BME280;35706;52.100;5.056;2023-02-28T02:20:33;103101.84;;;5.84;72.17
49813;BME280;35706;52.100;5.056;2023-02-28T02:23:51;103092.41;;;5.80;72.34
49813;BME280;35706;52.100;5.056;2023-02-28T02:26:48;103090.31;;;5.90;72.38
49813;BME280;35706;52.100;5.056;2023-02-28T02:28:17;103078.91;;;5.92;72.25
49813;BME280;35706;52.100;5.056;2023-02-28T02:29:40;103091.47;;;5.81;72.24
49813;BME280;35706;52.100;5.056;2023-02-28T02:31:04;103093.19;;;5.82;72.20
49813;BME280;35706;52.100;5.056;2023-02-28T02:37:21;103097.53;;;5.82;72.33
49813;BME280;35706;52.100;5.056;2023-02-28T02:38:36;103094.66;;;5.63;73.09
49813;BME280;35706;52.100;5.056;2023-02-28T02:39:58;103090.91;;;5.45;73.66
49813;BME280;35706;52.100;5.056;2023-02-28T02:42:20;103100.94;;;5.29;74.68
49813;BME280;35706;52.100;5.056;2023-02-28T02:43:29;103099.81;;;5.38;74.70
49813;BME280;35706;52.100;5.056;2023-02-28T02:45:06;103099.19;;;5.58;74.13
49813;BME280;35706;52.100;5.056;2023-02-28T02:46:14;103098.50;;;5.53;73.73
49813;BME280;35706;52.100;5.056;2023-02-28T02:47:20;103101.16;;;5.51;74.19
49813;BME280;35706;52.100;5.056;2023-02-28T02:48:29;103106.66;;;5.12;75.17
49813;BME280;35706;52.100;5.056;2023-02-28T02:49:32;103101.25;;;5.18;75.41
49813;BME280;35706;52.100;5.056;2023-02-28T02:50:37;103106.88;;;5.34;74.95
49813;BME280;35706;52.100;5.056;2023-02-28T02:51:40;103094.34;;;5.45;74.56
49813;BME280;35706;52.100;5.056;2023-02-28T02:52:45;103099.03;;;5.62;74.44
49813;BME280;35706;52.100;5.056;2023-02-28T02:54:02;103100.81;;;5.62;74.22
49813;BME280;35706;52.100;5.056;2023-02-28T02:55:06;103110.47;;;5.30;74.98
49813;BME280;35706;52.100;5.056;2023-02-28T02:56:08;103100.19;;;5.25;75.30
49813;BME280;35706;52.100;5.056;2023-02-28T02:57:15;103099.81;;;5.38;75.49
49813;BME280;35706;52.100;5.056;2023-02-28T02:58:19;103104.09;;;5.40;74.70
49813;BME280;35706;52.100;5.056;2023-02-28T02:59:22;103096.94;;;5.47;74.76
49813;BME280;35706;52.100;5.056;2023-02-28T03:00:28;103098.53;;;5.51;74.50
49813;BME280;35706;52.100;5.056;2023-02-28T03:01:31;103108.78;;;5.57;74.74
49813;BME280;35706;52.100;5.056;2023-02-28T03:02:32;103103.47;;;5.32;75.08
49813;BME280;35706;52.100;5.056;2023-02-28T03:03:34;103102.31;;;5.41;75.17
49813;BME280;35706;52.100;5.056;2023-02-28T03:04:46;103092.84;;;5.38;75.13
49813;BME280;35706;52.100;5.056;2023-02-28T03:05:50;103093.28;;;5.53;74.89
49813;BME280;35706;52.100;5.056;2023-02-28T03:06:51;103096.94;;;5.47;74.62
49813;BME280;35706;52.100;5.056;2023-02-28T03:07:54;103095.78;;;5.56;74.08
49813;BME280;35706;52.100;5.056;2023-02-28T03:08:55;103094.13;;;5.53;74.65
49813;BME280;35706;52.100;5.056;2023-02-28T03:09:56;103096.06;;;5.46;74.68
49813;BME280;35706;52.100;5.056;2023-02-28T03:11:00;103103.97;;;5.43;75.45
49813;BME280;35706;52.100;5.056;2023-02-28T03:12:01;103101.34;;;5.45;74.88
49813;BME280;35706;52.100;5.056;2023-02-28T03:15:15;103109.97;;;5.47;74.69
49813;BME280;35706;52.100;5.056;2023-02-28T03:16:29;103105.25;;;5.30;75.60
49813;BME280;35706;52.100;5.056;2023-02-28T03:23:48;103101.03;;;5.54;74.94
49813;BME280;35706;52.100;5.056;2023-02-28T03:25:13;103101.09;;;5.53;74.86
49813;BME280;35706;52.100;5.056;2023-02-28T03:26:21;103097.69;;;5.50;74.97
49813;BME280;35706;52.100;5.056;2023-02-28T03:27:49;103097.25;;;5.64;74.94
49813;BME280;35706;52.100;5.056;2023-02-28T03:29:05;103096.25;;;5.68;74.64
49813;BME280;35706;52.100;5.056;2023-02-28T03:30:16;103093.69;;;5.67;74.58
49813;BME280;35706;52.100;5.056;2023-02-28T03:31:22;103103.25;;;5.40;75.68
49813;BME280;35706;52.100;5.056;2023-02-28T03:32:53;103099.97;;;5.61;75.05
49813;BME280;35706;52.100;5.056;2023-02-28T03:34:08;103096.19;;;5.42;75.27
49813;BME280;35706;52.100;5.056;2023-02-28T03:35:23;103099.91;;;5.35;75.99
49813;BME280;35706;52.100;5.056;2023-02-28T03:36:29;103104.13;;;5.39;76.03
49813;BME280;35706;52.100;5.056;2023-02-28T03:37:31;103109.63;;;5.29;76.01
49813;BME280;35706;52.100;5.056;2023-02-28T03:38:40;103106.41;;;5.21;76.47
49813;BME280;35706;52.100;5.056;2023-02-28T03:39:44;103108.50;;;5.08;76.89
49813;BME280;35706;52.100;5.056;2023-02-28T03:40:50;103108.34;;;5.15;77.05
49813;BME280;35706;52.100;5.056;2023-02-28T03:41:57;103103.75;;;5.23;76.70
49813;BME280;35706;52.100;5.056;2023-02-28T03:43:04;103099.25;;;5.28;76.71
49813;BME280;35706;52.100;5.056;2023-02-28T03:44:16;103096.19;;;5.42;76.14
49813;BME280;35706;52.100;5.056;2023-02-28T03:45:24;103099.03;;;5.36;76.41
49813;BME280;35706;52.100;5.056;2023-02-28T03:46:28;103100.22;;;5.52;76.06
49813;BME280;35706;52.100;5.056;2023-02-28T03:47:35;103098.28;;;5.59;75.49
49813;BME280;35706;52.100;5.056;2023-02-28T03:48:43;103097.81;;;5.74;75.03
49813;BME280;35706;52.100;5.056;2023-02-28T03:50:17;103104.78;;;5.74;75.11
49813;BME280;35706;52.100;5.056;2023-02-28T03:51:21;103101.56;;;5.65;74.82
49813;BME280;35706;52.100;5.056;2023-02-28T03:52:27;103106.00;;;5.63;74.82
49813;BME280;35706;52.100;5.056;2023-02-28T03:53:33;103098.63;;;5.48;75.28
49813;BME280;35706;52.100;5.056;2023-02-28T03:54:41;103101.91;;;5.55;75.55
49813;BME280;35706;52.100;5.056;2023-02-28T03:56:06;103101.09;;;5.53;75.58
49813;BME280;35706;52.100;5.056;2023-02-28T03:58:40;103105.09;;;5.36;76.34
49813;BME280;35706;52.100;5.056;2023-02-28T03:59:47;103107.09;;;5.26;76.68
49813;BME280;35706;52.100;5.056;2023-02-28T04:00:54;103108.69;;;5.32;77.01
49813;BME280;35706;52.100;5.056;2023-02-28T04:01:57;103106.03;;;5.34;76.74
49813;BME280;35706;52.100;5.056;2023-02-28T04:02:58;103105.97;;;5.35;77.16
49813;BME280;35706;52.100;5.056;2023-02-28T04:03:59;103104.03;;;5.42;76.43
49813;BME280;35706;52.100;5.056;2023-02-28T04:05:00;103105.88;;;5.38;76.82
49813;BME280;35706;52.100;5.056;2023-02-28T04:06:00;103098.47;;;5.24;76.77
49813;BME280;35706;52.100;5.056;2023-02-28T04:07:07;103105.25;;;5.30;77.04
49813;BME280;35706;52.100;5.056;2023-02-28T04:08:08;103109.53;;;5.33;77.54
49813;BME280;35706;52.100;5.056;2023-02-28T04:09:11;103108.66;;;5.34;77.17
49813;BME280;35706;52.100;5.056;2023-02-28T04:10:11;103108.69;;;5.32;77.48
49813;BME280;35706;52.100;5.056;2023-02-28T04:12:18;103106.25;;;5.54;77.05
49813;BME280;35706;52.100;5.056;2023-02-28T04:13:19;103112.16;;;5.31;76.99
49813;BME280;35706;52.100;5.056;2023-02-28T04:14:19;103118.34;;;5.28;77.61
49813;BME280;35706;52.100;5.056;2023-02-28T04:15:19;103109.50;;;5.34;77.16
49813;BME280;35706;52.100;5.056;2023-02-28T04:16:22;103111.91;;;5.40;77.33
49813;BME280;35706;52.100;5.056;2023-02-28T04:17:23;103110.03;;;5.44;76.64
49813;BME280;35706;52.100;5.056;2023-02-28T04:18:23;103105.53;;;5.50;76.21
49813;BME280;35706;52.100;5.056;2023-02-28T04:19:23;103112.88;;;5.38;77.01
49813;BME280;35706;52.100;5.056;2023-02-28T04:20:23;103110.53;;;5.28;76.83
49813;BME280;35706;52.100;5.056;2023-02-28T04:21:24;103107.84;;;5.32;76.95
49813;BME280;35706;52.100;5.056;2023-02-28T04:22:24;103117.59;;;5.25;77.18
49813;BME280;35706;52.100;5.056;2023-02-28T04:23:27;103114.78;;;5.31;76.85
49813;BME280;35706;52.100;5.056;2023-02-28T04:24:28;103127.16;;;5.24;76.87
49813;BME280;35706;52.100;5.056;2023-02-28T04:25:29;103123.00;;;5.19;77.26
49813;BME280;35706;52.100;5.056;2023-02-28T04:26:30;103116.72;;;5.24;77.31
49813;BME280;35706;52.100;5.056;2023-02-28T04:27:30;103118.09;;;5.08;77.55
49813;BME280;35706;52.100;5.056;2023-02-28T04:28:31;103115.53;;;5.06;78.26
49813;BME280;35706;52.100;5.056;2023-02-28T04:29:32;103120.94;;;4.99;78.14
49813;BME280;35706;52.100;5.056;2023-02-28T04:30:32;103114.47;;;5.12;78.05
49813;BME280;35706;52.100;5.056;2023-02-28T04:31:33;103112.16;;;5.03;78.23
49813;BME280;35706;52.100;5.056;2023-02-28T04:32:34;103116.88;;;4.88;78.56
49813;BME280;35706;52.100;5.056;2023-02-28T04:33:34;103115.56;;;4.74;79.01
49813;BME280;35706;52.100;5.056;2023-02-28T04:34:34;103121.00;;;4.66;79.43
49813;BME280;35706;52.100;5.056;2023-02-28T04:35:34;103119.78;;;4.78;79.36
49813;BME280;35706;52.100;5.056;2023-02-28T04:36:35;103117.94;;;4.83;79.21
49813;BME280;35706;52.100;5.056;2023-02-28T04:37:35;103120.66;;;4.78;79.32
49813;BME280;35706;52.100;5.056;2023-02-28T04:38:38;103123.72;;;4.93;78.67
49813;BME280;35706;52.100;5.056;2023-02-28T04:39:40;103115.66;;;5.02;78.33
49813;BME280;35706;52.100;5.056;2023-02-28T04:40:40;103120.50;;;5.14;77.58
49813;BME280;35706;52.100;5.056;2023-02-28T04:41:40;103123.03;;;5.17;77.17
49813;BME280;35706;52.100;5.056;2023-02-28T04:42:41;103123.00;;;5.19;76.72
49813;BME280;35706;52.100;5.056;2023-02-28T04:43:41;103122.94;;;5.20;76.96
49813;BME280;35706;52.100;5.056;2023-02-28T04:44:41;103122.66;;;5.29;76.42
49813;BME280;35706;52.100;5.056;2023-02-28T04:45:42;103122.56;;;5.33;76.52
49813;BME280;35706;52.100;5.056;2023-02-28T04:46:43;103120.69;;;5.38;76.41
49813;BME280;35706;52.100;5.056;2023-02-28T04:47:44;103125.13;;;5.34;76.36
49813;BME280;35706;52.100;5.056;2023-02-28T04:48:44;103125.66;;;5.45;76.25
49813;BME280;35706;52.100;5.056;2023-02-28T04:49:45;103120.72;;;5.36;76.12
49813;BME280;35706;52.100;5.056;2023-02-28T04:50:45;103130.84;;;5.47;76.00
49813;BME280;35706;52.100;5.056;2023-02-28T04:51:45;103119.28;;;5.54;75.57
49813;BME280;35706;52.100;5.056;2023-02-28T04:52:45;103129.19;;;5.44;75.71
49813;BME280;35706;52.100;5.056;2023-02-28T04:53:47;103127.56;;;5.40;75.21
49813;BME280;35706;52.100;5.056;2023-02-28T04:54:48;103124.09;;;5.40;74.41
49813;BME280;35706;52.100;5.056;2023-02-28T04:55:49;103127.59;;;5.39;74.30
49813;BME280;35706;52.100;5.056;2023-02-28T04:56:49;103116.13;;;5.44;73.67
49813;BME280;35706;52.100;5.056;2023-02-28T04:57:49;103124.28;;;5.34;74.10
49813;BME280;35706;52.100;5.056;2023-02-28T04:58:50;103132.84;;;5.37;74.08
49813;BME280;35706;52.100;5.056;2023-02-28T04:59:53;103121.53;;;5.38;73.96
49813;BME280;35706;52.100;5.056;2023-02-28T05:00:53;103131.94;;;5.40;72.79
49813;BME280;35706;52.100;5.056;2023-02-28T05:01:54;103126.59;;;5.43;72.34
49813;BME280;35706;52.100;5.056;2023-02-28T05:02:54;103132.19;;;5.30;71.88
49813;BME280;35706;52.100;5.056;2023-02-28T05:03:56;103121.69;;;5.34;72.09
49813;BME280;35706;52.100;5.056;2023-02-28T05:04:57;103128.03;;;5.25;72.20
49813;BME280;35706;52.100;5.056;2023-02-28T05:05:57;103120.81;;;5.33;72.46
49813;BME280;35706;52.100;5.056;2023-02-28T05:06:57;103119.59;;;5.45;71.47
49813;BME280;35706;52.100;5.056;2023-02-28T05:07:58;103123.09;;;5.44;69.82
49813;BME280;35706;52.100;5.056;2023-02-28T05:08:58;103125.00;;;5.39;68.48
49813;BME280;35706;52.100;5.056;2023-02-28T05:09:59;103120.06;;;5.29;68.52
49813;BME280;35706;52.100;5.056;2023-02-28T05:11:00;103120.41;;;5.17;68.22
49813;BME280;35706;52.100;5.056;2023-02-28T05:12:00;103122.03;;;5.21;68.18
49813;BME280;35706;52.100;5.056;2023-02-28T05:13:01;103116.72;;;5.24;67.91
49813;BME280;35706;52.100;5.056;2023-02-28T05:14:03;103127.81;;;5.31;67.82
49813;BME280;35706;52.100;5.056;2023-02-28T05:15:04;103117.47;;;5.29;67.67
49813;BME280;35706;52.100;5.056;2023-02-28T05:16:05;103119.19;;;5.29;66.49
49813;BME280;35706;52.100;5.056;2023-02-28T05:17:05;103118.38;;;5.27;66.18
49813;BME280;35706;52.100;5.056;2023-02-28T05:18:06;103124.00;;;5.43;65.98
49813;BME280;35706;52.100;5.056;2023-02-28T05:19:08;103118.56;;;5.50;64.75
49813;BME280;35706;52.100;5.056;2023-02-28T05:20:09;103121.50;;;5.40;64.87
49813;BME280;35706;52.100;5.056;2023-02-28T05:22:24;103121.53;;;5.38;64.38
49813;BME280;35706;52.100;5.056;2023-02-28T05:23:24;103123.47;;;5.32;64.25
49813;BME280;35706;52.100;5.056;2023-02-28T05:24:25;103126.97;;;5.30;64.17
49813;BME280;35706;52.100;5.056;2023-02-28T05:25:26;103123.00;;;5.19;63.89
49813;BME280;35706;52.100;5.056;2023-02-28T05:26:27;103123.66;;;5.25;64.29
49813;BME280;35706;52.100;5.056;2023-02-28T05:27:28;103124.69;;;5.20;63.90
49813;BME280;35706;52.100;5.056;2023-02-28T05:28:28;103128.13;;;5.20;63.96
49813;BME280;35706;52.100;5.056;2023-02-28T05:29:28;103138.84;;;5.11;63.45
49813;BME280;35706;52.100;5.056;2023-02-28T05:30:29;103128.22;;;5.19;63.09
49813;BME280;35706;52.100;5.056;2023-02-28T05:31:30;103130.25;;;5.07;63.47
49813;BME280;35706;52.100;5.056;2023-02-28T05:32:30;103132.81;;;5.09;63.84
49813;BME280;35706;52.100;5.056;2023-02-28T05:33:30;103136.41;;;5.05;63.56
49813;BME280;35706;52.100;5.056;2023-02-28T05:34:30;103133.59;;;5.13;63.41
49813;BME280;35706;52.100;5.056;2023-02-28T05:35:31;103132.28;;;4.98;63.90
49813;BME280;35706;52.100;5.056;2023-02-28T05:36:32;103127.72;;;5.06;64.25
49813;BME280;35706;52.100;5.056;2023-02-28T05:37:32;103131.19;;;5.05;63.78
49813;BME280;35706;52.100;5.056;2023-02-28T05:38:32;103133.41;;;4.89;64.28
49813;BME280;35706;52.100;5.056;2023-02-28T05:39:33;103126.34;;;4.93;63.71
49813;BME280;35706;52.100;5.056;2023-02-28T05:40:33;103130.56;;;4.97;63.78
49813;BME280;35706;52.100;5.056;2023-02-28T05:41:33;103129.22;;;4.83;63.20
49813;BME280;35706;52.100;5.056;2023-02-28T05:42:34;103127.66;;;4.76;63.80
49813;BME280;35706;52.100;5.056;2023-02-28T05:43:35;103126.78;;;4.77;63.84
49813;BME280;35706;52.100;5.056;2023-02-28T05:44:36;103125.34;;;4.97;63.82
49813;BME280;35706;52.100;5.056;2023-02-28T05:45:36;103125.19;;;5.03;63.13
49813;BME280;35706;52.100;5.056;2023-02-28T05:46:36;103124.38;;;5.01;63.13
49813;BME280;35706;52.100;5.056;2023-02-28T05:47:37;103128.75;;;4.67;64.08
49813;BME280;35706;52.100;5.056;2023-02-28T05:48:38;103123.81;;;4.89;63.66
49813;BME280;35706;52.100;5.056;2023-02-28T05:49:39;103127.75;;;4.73;64.12
49813;BME280;35706;52.100;5.056;2023-02-28T05:50:39;103135.44;;;4.78;64.16
49813;BME280;35706;52.100;5.056;2023-02-28T05:51:40;103131.44;;;4.66;64.57
49813;BME280;35706;52.100;5.056;2023-02-28T05:52:40;103137.16;;;4.79;64.58
49813;BME280;35706;52.100;5.056;2023-02-28T05:53:40;103132.19;;;4.69;64.70
49813;BME280;35706;52.100;5.056;2023-02-28T05:54:41;103134.38;;;4.85;63.96
49813;BME280;35706;52.100;5.056;2023-02-28T05:55:41;103137.28;;;4.74;64.37
49813;BME280;35706;52.100;5.056;2023-02-28T05:56:41;103137.31;;;4.73;64.63
49813;BME280;35706;52.100;5.056;2023-02-28T05:57:44;103138.97;;;4.75;64.82
49813;BME280;35706;52.100;5.056;2023-02-28T05:58:44;103137.06;;;4.82;64.89
49813;BME280;35706;52.100;5.056;2023-02-28T05:59:44;103135.81;;;4.64;65.27
49813;BME280;35706;52.100;5.056;2023-02-28T06:00:45;103140.94;;;4.67;65.51
49813;BME280;35706;52.100;5.056;2023-02-28T06:01:46;103138.72;;;4.53;66.14